Flight Track Log - Related Links

Times and Time Zones

All times are in EDT time to prevent confusion due to time zone crossing. See the ASA67 flight status page for this flight to view local times or setup timezone preferences in your user account.

Time Position Orientation Groundspeed Altitude Reporting Facility
EDT Latitude Longitude Course Direction KTS MPH feet Rate Location/Type
Mon 11:51:15 PM 58.4116 -134.8144 281° West  Level FlightAware Approximate
Mon 11:52:15 PM 58.4714 -134.9878 259° West  Level FlightAware Approximate
Mon 11:53:15 PM 58.5191 -135.1781 189° South  Level FlightAware Approximate
Mon 11:54:15 PM 58.5638 -135.3699 142° Southeast  Level FlightAware Approximate
Mon 11:54:48 PM 58.4500 -135.2000 307° West 360 414 13,700  Level Anchorage Center
Mon 11:55:48 PM 58.5167 -135.3667 300° West 370 426 16,600 2,678 Climbing Anchorage Center
Mon 11:56:49 PM 58.5667 -135.5333 305° West 390 449 19,100 2,579 Climbing Anchorage Center
Mon 11:57:49 PM 58.6333 -135.7167 300° West 400 460 21,800 2,777 Climbing Anchorage Center
Mon 11:58:50 PM 58.6833 -135.8833 305° West 390 449 24,700 2,231 Climbing Anchorage Center
Mon 11:59:50 PM 58.7500 -136.0667 298° West 400 460 26,300 1,650 Climbing Anchorage Center
Tue 12:00:50 AM 58.8000 -136.2500 305° West 410 472 28,000 1,736 Climbing Anchorage Center
Tue 12:01:51 AM 58.8667 -136.4333 296° West 420 483 29,800 1,785 Climbing Anchorage Center
Tue 12:02:51 AM 58.9167 -136.6333 303° West 420 483 31,600 1,091 Climbing Anchorage Center
Tue 12:03:52 AM 58.9833 -136.8333 305° West 420 483 32,000 198 Climbing Anchorage Center
Tue 12:04:52 AM 59.0500 -137.0167 296° West 420 483 32,000  Level Anchorage Center
Tue 12:05:52 AM 59.1000 -137.2167 305° West 410 472 32,000  Level Anchorage Center
Tue 12:06:53 AM 59.1667 -137.4000 296° West 410 472 32,000  Level Anchorage Center
Tue 12:07:53 AM 59.2167 -137.6000 303° West 420 483 32,000  Level Anchorage Center
Tue 12:08:53 AM 59.2833 -137.8000 303° West 420 483 32,000  Level Anchorage Center
Tue 12:09:54 AM 59.3500 -138.0000 296° West 420 483 32,000  Level Anchorage Center
Tue 12:10:55 AM 59.4000 -138.2000 287° West 420 483 32,000  Level Anchorage Center
Tue 12:11:55 AM 59.4333 -138.4167 295° West 420 483 32,000  Level Anchorage Center
Tue 12:12:55 AM 59.4833 -138.6333 287° West 420 483 32,000  Level Anchorage Center
Tue 12:13:55 AM 59.5167 -138.8500 287° West 420 483 32,000  Level Anchorage Center
Tue 12:14:56 AM 59.5500 -139.0667 286° West 420 483 32,000  Level Anchorage Center
Tue 12:15:57 AM 59.5833 -139.3000 285° West 430 495 32,000  Level Anchorage Center
Tue 12:16:57 AM 59.6167 -139.5500 287° West 420 483 32,000  Level Anchorage Center
Tue 12:17:57 AM 59.6500 -139.7667 286° West 420 483 32,000  Level Anchorage Center
Tue 12:18:58 AM 59.6833 -140.0000 287° West 430 495 32,000  Level Anchorage Center
Tue 12:19:58 AM 59.7167 -140.2167 287° West 420 483 32,000  Level Anchorage Center
Tue 12:20:58 AM 59.7500 -140.4333 286° West 420 483 32,000  Level Anchorage Center
Tue 12:21:59 AM 59.7833 -140.6667 287° West 420 483 32,000  Level Anchorage Center
Tue 12:22:59 AM 59.8167 -140.8833 286° West 420 483 32,000  Level Anchorage Center
Tue 12:23:59 AM 59.8500 -141.1167 287° West 420 483 32,000  Level Anchorage Center
Tue 12:25:00 AM 59.8833 -141.3333 278° West 420 483 32,000  Level Anchorage Center
Tue 12:26:00 AM 59.9000 -141.5667 286° West 430 495 32,000  Level Anchorage Center
Tue 12:27:00 AM 59.9333 -141.8000 287° West 430 495 32,000  Level Anchorage Center
Tue 12:28:01 AM 59.9667 -142.0167 286° West 430 495 32,000  Level Anchorage Center
Tue 12:29:02 AM 60.0000 -142.2500 286° West 420 483 32,000  Level Anchorage Center
Tue 12:30:02 AM 60.0333 -142.4833 279° West 420 483 32,000  Level Anchorage Center
Tue 12:31:02 AM 60.0500 -142.7000 286° West 420 483 32,000  Level Anchorage Center
Tue 12:32:03 AM 60.0833 -142.9333 286° West 420 483 32,000  Level Anchorage Center
Tue 12:33:03 AM 60.1167 -143.1667 285° West 420 483 32,000  Level Anchorage Center
Tue 12:34:03 AM 60.1500 -143.4167 278° West 430 495 32,000  Level Anchorage Center
Tue 12:35:04 AM 60.1667 -143.6500 287° West 400 460 32,000  Level Anchorage Center
Tue 12:36:04 AM 60.2000 -143.8667 279° West 420 483 32,000  Level Anchorage Center
Tue 12:37:05 AM 60.2167 -144.0833 286° West 410 472 32,000  Level Anchorage Center
Tue 12:38:05 AM 60.2500 -144.3167 279° West 400 460 32,000  Level Anchorage Center
Tue 12:39:05 AM 60.2667 -144.5333 278° West 410 472 32,000  Level Anchorage Center
Tue 12:40:05 AM 60.2833 -144.7667 287° West 410 472 32,000  Level Anchorage Center
Tue 12:41:06 AM 60.3167 -144.9833 278° West 410 472 32,000  Level Anchorage Center
Tue 12:42:06 AM 60.3333 -145.2167 287° West 410 472 32,000  Level Anchorage Center
Tue 12:43:07 AM 60.3667 -145.4333 278° West 400 460 32,000  Level Anchorage Center
Tue 12:44:07 AM 60.3833 -145.6667 278° West 410 472 32,000  Level Anchorage Center
Tue 12:45:08 AM 60.4000 -145.9000 286° West 410 472 32,000  Level Anchorage Center
Tue 12:46:08 AM 60.4333 -146.1333 279° West 420 483 32,000  Level Anchorage Center
Tue 12:47:09 AM 60.4500 -146.3500 278° West 410 472 32,000  Level Anchorage Center
Tue 12:48:09 AM 60.4667 -146.5833 295° West 410 472 32,000  Level Anchorage Center
Tue 12:49:09 AM 60.5167 -146.8000 287° West 410 472 32,000  Level Anchorage Center
Tue 12:50:10 AM 60.5500 -147.0167 295° West 400 460 32,000  Level Anchorage Center
Tue 12:51:10 AM 60.6000 -147.2333 294° West 410 472 32,000  Level Anchorage Center
Tue 12:52:11 AM 60.6500 -147.4667 295° West 400 460 32,000 -99 Level Anchorage Center
Tue 12:53:11 AM 60.7000 -147.6833 288° West 400 460 31,800 -1,200 Descending Anchorage Center
Tue 12:54:11 AM 60.7333 -147.9000 289° West 400 460 29,600 -2,281 Descending Anchorage Center
Tue 12:55:12 AM 60.7667 -148.1000 289° West 390 449 27,200 -2,331 Descending Anchorage Center
Tue 12:56:12 AM 60.8000 -148.3000 297° West 380 437 24,900 -2,400 Descending Anchorage Center
Tue 12:57:12 AM 60.8500 -148.5000 291° West 370 426 22,400 -2,200 Descending Anchorage Center
Tue 12:58:12 AM 60.8833 -148.6833 291° West 350 403 20,500 -2,231 Descending Anchorage Center
Tue 12:59:13 AM 60.9167 -148.8667 284° West 350 403 17,900 -2,557 Descending Anchorage Center
Tue 01:06:15 AM 61.0811 -150.2711 54° Northeast  Level FlightAware Approximate
Tue 01:07:15 AM 61.1418 -150.0953 55° Northeast  Level FlightAware Approximate
Tue 01:08:15 AM 61.2013 -149.9160 235° Southwest  Level Estimated
Tue 01:09:15 AM 61.1455 -150.0789 54° Northeast  Level FlightAware Approximate
Tue 01:10:15 AM 61.2075 -149.9035 234° Southwest  Level Estimated
Tue 01:11:15 AM 61.1455 -150.0789 65° Northeast  Level Estimated
Tue 01:12:15 AM 61.1667 -149.9833 316° Northwest  Level FlightAware Approximate
Tue 01:13:15 AM 61.2420 -150.1349 136° Southeast  Level Estimated
Tue 01:14:15 AM 61.1667 -149.9833 316° Northwest  Level FlightAware Approximate
Tue 01:15:15 AM 61.2420 -150.1349 136° Southeast  Level Estimated
Tue 01:16:15 AM 61.1667 -149.9833 316° Northwest  Level FlightAware Approximate
Tue 01:17:15 AM 61.2420 -150.1349 316° Northwest  Level Estimated

Login

Don't have an account? Register now (free) for customized features, flight alerts, and more!